sensor_id;sensor_type;location;lat;lon;timestamp;P1;durP1;ratioP1;P2;durP2;ratioP2
13660;SDS011;6903;49.480;11.102;2024-01-06T00:02:10;8.50;;;5.43;;
13660;SDS011;6903;49.480;11.102;2024-01-06T00:04:36;9.03;;;5.13;;
13660;SDS011;6903;49.480;11.102;2024-01-06T00:07:01;6.27;;;4.93;;
13660;SDS011;6903;49.480;11.102;2024-01-06T00:09:26;7.50;;;5.17;;
13660;SDS011;6903;49.480;11.102;2024-01-06T00:11:51;7.30;;;4.73;;
13660;SDS011;6903;49.480;11.102;2024-01-06T00:14:16;7.77;;;5.80;;
13660;SDS011;6903;49.480;11.102;2024-01-06T00:16:42;11.00;;;5.73;;
13660;SDS011;6903;49.480;11.102;2024-01-06T00:19:07;7.27;;;5.43;;
13660;SDS011;6903;49.480;11.102;2024-01-06T00:21:32;8.57;;;6.03;;
13660;SDS011;6903;49.480;11.102;2024-01-06T00:23:57;8.37;;;6.00;;
13660;SDS011;6903;49.480;11.102;2024-01-06T00:26:22;9.20;;;6.10;;
13660;SDS011;6903;49.480;11.102;2024-01-06T00:28:49;9.30;;;5.30;;
13660;SDS011;6903;49.480;11.102;2024-01-06T00:31:15;9.03;;;5.73;;
13660;SDS011;6903;49.480;11.102;2024-01-06T00:33:42;11.23;;;6.07;;
13660;SDS011;6903;49.480;11.102;2024-01-06T00:36:07;7.83;;;5.03;;
13660;SDS011;6903;49.480;11.102;2024-01-06T00:38:32;7.37;;;5.00;;
13660;SDS011;6903;49.480;11.102;2024-01-06T00:40:57;7.80;;;5.47;;
13660;SDS011;6903;49.480;11.102;2024-01-06T00:43:22;7.70;;;5.47;;
13660;SDS011;6903;49.480;11.102;2024-01-06T00:45:48;7.60;;;5.40;;
13660;SDS011;6903;49.480;11.102;2024-01-06T00:48:13;11.80;;;5.97;;
13660;SDS011;6903;49.480;11.102;2024-01-06T00:50:38;7.37;;;5.63;;
13660;SDS011;6903;49.480;11.102;2024-01-06T00:53:03;7.60;;;5.50;;
13660;SDS011;6903;49.480;11.102;2024-01-06T00:55:28;9.00;;;5.53;;
13660;SDS011;6903;49.480;11.102;2024-01-06T00:57:54;7.77;;;5.23;;
13660;SDS011;6903;49.480;11.102;2024-01-06T01:00:19;9.20;;;6.10;;
13660;SDS011;6903;49.480;11.102;2024-01-06T01:02:44;7.73;;;5.40;;
13660;SDS011;6903;49.480;11.102;2024-01-06T01:05:09;8.00;;;5.10;;
13660;SDS011;6903;49.480;11.102;2024-01-06T01:07:35;7.77;;;5.20;;
13660;SDS011;6903;49.480;11.102;2024-01-06T01:10:00;8.97;;;5.67;;
13660;SDS011;6903;49.480;11.102;2024-01-06T01:12:25;8.40;;;5.50;;
13660;SDS011;6903;49.480;11.102;2024-01-06T01:14:51;9.83;;;5.70;;
13660;SDS011;6903;49.480;11.102;2024-01-06T01:17:16;7.40;;;4.87;;
13660;SDS011;6903;49.480;11.102;2024-01-06T01:19:41;8.77;;;5.60;;
13660;SDS011;6903;49.480;11.102;2024-01-06T01:22:07;7.93;;;5.30;;
13660;SDS011;6903;49.480;11.102;2024-01-06T01:24:32;9.67;;;5.73;;
13660;SDS011;6903;49.480;11.102;2024-01-06T01:26:57;10.43;;;5.57;;
13660;SDS011;6903;49.480;11.102;2024-01-06T01:29:22;11.43;;;5.80;;
13660;SDS011;6903;49.480;11.102;2024-01-06T01:31:48;9.87;;;5.60;;
13660;SDS011;6903;49.480;11.102;2024-01-06T01:34:13;9.60;;;5.43;;
13660;SDS011;6903;49.480;11.102;2024-01-06T01:36:38;10.93;;;5.53;;
13660;SDS011;6903;49.480;11.102;2024-01-06T01:39:04;9.23;;;5.53;;
13660;SDS011;6903;49.480;11.102;2024-01-06T01:41:29;11.90;;;6.13;;
13660;SDS011;6903;49.480;11.102;2024-01-06T01:43:54;9.90;;;6.00;;
13660;SDS011;6903;49.480;11.102;2024-01-06T01:46:26;10.90;;;5.83;;
13660;SDS011;6903;49.480;11.102;2024-01-06T01:48:52;10.90;;;5.30;;
13660;SDS011;6903;49.480;11.102;2024-01-06T01:51:18;8.07;;;5.50;;
13660;SDS011;6903;49.480;11.102;2024-01-06T01:53:44;9.57;;;5.30;;
13660;SDS011;6903;49.480;11.102;2024-01-06T01:56:10;11.77;;;5.93;;
13660;SDS011;6903;49.480;11.102;2024-01-06T01:58:35;8.97;;;5.33;;
13660;SDS011;6903;49.480;11.102;2024-01-06T02:01:01;10.63;;;5.77;;
13660;SDS011;6903;49.480;11.102;2024-01-06T02:03:26;9.90;;;6.20;;
13660;SDS011;6903;49.480;11.102;2024-01-06T02:05:54;9.17;;;5.13;;
13660;SDS011;6903;49.480;11.102;2024-01-06T02:08:19;9.00;;;5.27;;
13660;SDS011;6903;49.480;11.102;2024-01-06T02:10:44;9.83;;;6.43;;
13660;SDS011;6903;49.480;11.102;2024-01-06T02:13:10;8.87;;;5.90;;
13660;SDS011;6903;49.480;11.102;2024-01-06T02:15:36;8.17;;;5.73;;
13660;SDS011;6903;49.480;11.102;2024-01-06T02:18:01;9.93;;;6.03;;
13660;SDS011;6903;49.480;11.102;2024-01-06T02:20:26;7.93;;;5.07;;
13660;SDS011;6903;49.480;11.102;2024-01-06T02:22:53;8.10;;;5.47;;
13660;SDS011;6903;49.480;11.102;2024-01-06T02:25:18;9.23;;;5.23;;
13660;SDS011;6903;49.480;11.102;2024-01-06T02:27:43;7.77;;;4.90;;
13660;SDS011;6903;49.480;11.102;2024-01-06T02:30:08;11.03;;;6.00;;
13660;SDS011;6903;49.480;11.102;2024-01-06T02:32:34;10.90;;;6.57;;
13660;SDS011;6903;49.480;11.102;2024-01-06T02:34:59;9.53;;;6.47;;
13660;SDS011;6903;49.480;11.102;2024-01-06T02:37:24;10.43;;;6.03;;
13660;SDS011;6903;49.480;11.102;2024-01-06T02:39:49;10.17;;;6.10;;
13660;SDS011;6903;49.480;11.102;2024-01-06T02:42:15;12.00;;;6.70;;
13660;SDS011;6903;49.480;11.102;2024-01-06T02:44:40;9.63;;;6.20;;
13660;SDS011;6903;49.480;11.102;2024-01-06T02:47:05;12.63;;;6.93;;
13660;SDS011;6903;49.480;11.102;2024-01-06T02:49:30;9.40;;;6.33;;
13660;SDS011;6903;49.480;11.102;2024-01-06T02:51:56;9.17;;;6.60;;
13660;SDS011;6903;49.480;11.102;2024-01-06T02:54:21;12.07;;;7.23;;
13660;SDS011;6903;49.480;11.102;2024-01-06T02:56:46;10.93;;;6.30;;
13660;SDS011;6903;49.480;11.102;2024-01-06T02:59:11;12.20;;;6.47;;
13660;SDS011;6903;49.480;11.102;2024-01-06T03:01:36;13.20;;;6.60;;
13660;SDS011;6903;49.480;11.102;2024-01-06T03:04:02;11.17;;;6.00;;
13660;SDS011;6903;49.480;11.102;2024-01-06T03:06:27;9.03;;;5.90;;
13660;SDS011;6903;49.480;11.102;2024-01-06T03:08:52;8.43;;;6.30;;
13660;SDS011;6903;49.480;11.102;2024-01-06T03:11:18;11.43;;;5.47;;
13660;SDS011;6903;49.480;11.102;2024-01-06T03:13:43;7.63;;;5.40;;
13660;SDS011;6903;49.480;11.102;2024-01-06T03:16:08;10.03;;;5.77;;
13660;SDS011;6903;49.480;11.102;2024-01-06T03:18:36;8.93;;;5.70;;
13660;SDS011;6903;49.480;11.102;2024-01-06T03:21:01;8.07;;;4.90;;
13660;SDS011;6903;49.480;11.102;2024-01-06T03:23:26;7.37;;;4.93;;
13660;SDS011;6903;49.480;11.102;2024-01-06T03:25:51;10.70;;;5.40;;
13660;SDS011;6903;49.480;11.102;2024-01-06T03:28:16;7.13;;;5.00;;
13660;SDS011;6903;49.480;11.102;2024-01-06T03:30:42;9.70;;;5.67;;
13660;SDS011;6903;49.480;11.102;2024-01-06T03:33:07;9.00;;;5.73;;
13660;SDS011;6903;49.480;11.102;2024-01-06T03:35:32;7.73;;;5.00;;
13660;SDS011;6903;49.480;11.102;2024-01-06T03:37:57;8.90;;;6.13;;
13660;SDS011;6903;49.480;11.102;2024-01-06T03:40:22;7.47;;;5.17;;
13660;SDS011;6903;49.480;11.102;2024-01-06T03:42:47;8.00;;;4.57;;
13660;SDS011;6903;49.480;11.102;2024-01-06T03:45:13;8.07;;;4.70;;
13660;SDS011;6903;49.480;11.102;2024-01-06T03:47:38;6.63;;;4.73;;
13660;SDS011;6903;49.480;11.102;2024-01-06T03:50:03;10.73;;;5.37;;
13660;SDS011;6903;49.480;11.102;2024-01-06T03:52:29;7.53;;;4.80;;
13660;SDS011;6903;49.480;11.102;2024-01-06T03:54:54;6.40;;;4.70;;
13660;SDS011;6903;49.480;11.102;2024-01-06T03:57:19;8.53;;;5.13;;
13660;SDS011;6903;49.480;11.102;2024-01-06T03:59:44;9.30;;;5.17;;
13660;SDS011;6903;49.480;11.102;2024-01-06T04:02:09;8.67;;;5.17;;
13660;SDS011;6903;49.480;11.102;2024-01-06T04:04:35;9.83;;;5.50;;
13660;SDS011;6903;49.480;11.102;2024-01-06T04:07:00;7.13;;;5.13;;
13660;SDS011;6903;49.480;11.102;2024-01-06T04:09:26;7.93;;;5.27;;
13660;SDS011;6903;49.480;11.102;2024-01-06T04:11:51;9.13;;;5.70;;
13660;SDS011;6903;49.480;11.102;2024-01-06T04:14:16;10.57;;;5.77;;
13660;SDS011;6903;49.480;11.102;2024-01-06T04:16:42;8.93;;;5.60;;
13660;SDS011;6903;49.480;11.102;2024-01-06T04:19:07;8.27;;;5.20;;
13660;SDS011;6903;49.480;11.102;2024-01-06T04:21:33;7.73;;;5.23;;
13660;SDS011;6903;49.480;11.102;2024-01-06T04:23:58;8.87;;;5.17;;
13660;SDS011;6903;49.480;11.102;2024-01-06T04:26:24;6.57;;;5.00;;
13660;SDS011;6903;49.480;11.102;2024-01-06T04:28:49;7.73;;;5.57;;
13660;SDS011;6903;49.480;11.102;2024-01-06T04:31:14;8.77;;;4.90;;
13660;SDS011;6903;49.480;11.102;2024-01-06T04:33:39;7.60;;;5.03;;
13660;SDS011;6903;49.480;11.102;2024-01-06T04:36:05;7.37;;;4.80;;
13660;SDS011;6903;49.480;11.102;2024-01-06T04:38:30;7.93;;;5.20;;
13660;SDS011;6903;49.480;11.102;2024-01-06T04:40:55;9.90;;;4.50;;
13660;SDS011;6903;49.480;11.102;2024-01-06T04:43:21;9.63;;;4.80;;
13660;SDS011;6903;49.480;11.102;2024-01-06T04:45:46;6.87;;;4.63;;
13660;SDS011;6903;49.480;11.102;2024-01-06T04:48:11;8.63;;;4.80;;
13660;SDS011;6903;49.480;11.102;2024-01-06T04:50:36;7.03;;;5.20;;
13660;SDS011;6903;49.480;11.102;2024-01-06T04:53:02;9.30;;;5.27;;
13660;SDS011;6903;49.480;11.102;2024-01-06T04:55:27;8.93;;;5.13;;
13660;SDS011;6903;49.480;11.102;2024-01-06T04:57:53;8.07;;;5.23;;
13660;SDS011;6903;49.480;11.102;2024-01-06T05:00:18;9.23;;;4.23;;
13660;SDS011;6903;49.480;11.102;2024-01-06T05:02:43;7.40;;;4.93;;
13660;SDS011;6903;49.480;11.102;2024-01-06T05:05:08;7.83;;;4.70;;
13660;SDS011;6903;49.480;11.102;2024-01-06T05:07:34;8.90;;;5.13;;
13660;SDS011;6903;49.480;11.102;2024-01-06T05:09:59;9.37;;;4.80;;
13660;SDS011;6903;49.480;11.102;2024-01-06T05:12:24;8.83;;;5.50;;
13660;SDS011;6903;49.480;11.102;2024-01-06T05:14:49;7.37;;;4.80;;
13660;SDS011;6903;49.480;11.102;2024-01-06T05:17:14;7.87;;;4.80;;
13660;SDS011;6903;49.480;11.102;2024-01-06T05:19:39;8.97;;;5.00;;
13660;SDS011;6903;49.480;11.102;2024-01-06T05:22:05;7.37;;;4.97;;
13660;SDS011;6903;49.480;11.102;2024-01-06T05:24:30;9.10;;;4.97;;
13660;SDS011;6903;49.480;11.102;2024-01-06T05:26:55;8.63;;;5.13;;
13660;SDS011;6903;49.480;11.102;2024-01-06T05:29:20;7.53;;;4.47;;
13660;SDS011;6903;49.480;11.102;2024-01-06T05:31:45;6.67;;;5.10;;
13660;SDS011;6903;49.480;11.102;2024-01-06T05:34:12;9.93;;;4.97;;
13660;SDS011;6903;49.480;11.102;2024-01-06T05:36:37;7.83;;;5.00;;
13660;SDS011;6903;49.480;11.102;2024-01-06T05:39:03;6.90;;;4.70;;
13660;SDS011;6903;49.480;11.102;2024-01-06T05:41:28;7.53;;;5.67;;
13660;SDS011;6903;49.480;11.102;2024-01-06T05:43:53;7.10;;;4.87;;
13660;SDS011;6903;49.480;11.102;2024-01-06T05:46:24;9.33;;;5.03;;
13660;SDS011;6903;49.480;11.102;2024-01-06T05:48:50;6.43;;;4.67;;
13660;SDS011;6903;49.480;11.102;2024-01-06T05:51:15;7.43;;;4.83;;
13660;SDS011;6903;49.480;11.102;2024-01-06T05:53:40;8.17;;;5.50;;
13660;SDS011;6903;49.480;11.102;2024-01-06T05:56:07;9.17;;;4.83;;
13660;SDS011;6903;49.480;11.102;2024-01-06T05:58:33;7.10;;;5.00;;
13660;SDS011;6903;49.480;11.102;2024-01-06T06:00:59;8.77;;;5.27;;
13660;SDS011;6903;49.480;11.102;2024-01-06T06:03:24;8.20;;;5.30;;
13660;SDS011;6903;49.480;11.102;2024-01-06T06:05:49;9.60;;;5.77;;
13660;SDS011;6903;49.480;11.102;2024-01-06T06:08:15;9.20;;;5.03;;
13660;SDS011;6903;49.480;11.102;2024-01-06T06:10:40;10.87;;;5.77;;
13660;SDS011;6903;49.480;11.102;2024-01-06T06:13:09;11.43;;;5.53;;
13660;SDS011;6903;49.480;11.102;2024-01-06T06:15:36;5.90;;;4.73;;
13660;SDS011;6903;49.480;11.102;2024-01-06T06:18:01;8.37;;;4.80;;
13660;SDS011;6903;49.480;11.102;2024-01-06T06:20:26;7.90;;;5.13;;
13660;SDS011;6903;49.480;11.102;2024-01-06T06:22:51;13.37;;;5.70;;
13660;SDS011;6903;49.480;11.102;2024-01-06T06:25:16;7.90;;;5.37;;
13660;SDS011;6903;49.480;11.102;2024-01-06T06:27:41;8.20;;;5.63;;
13660;SDS011;6903;49.480;11.102;2024-01-06T06:30:07;9.00;;;5.10;;
13660;SDS011;6903;49.480;11.102;2024-01-06T06:32:33;8.87;;;5.37;;
13660;SDS011;6903;49.480;11.102;2024-01-06T06:34:58;9.10;;;5.53;;
13660;SDS011;6903;49.480;11.102;2024-01-06T06:37:23;6.87;;;5.10;;
13660;SDS011;6903;49.480;11.102;2024-01-06T06:39:48;8.33;;;5.20;;
13660;SDS011;6903;49.480;11.102;2024-01-06T06:42:13;7.10;;;4.97;;
13660;SDS011;6903;49.480;11.102;2024-01-06T06:44:39;6.90;;;4.73;;
13660;SDS011;6903;49.480;11.102;2024-01-06T06:47:04;6.33;;;4.97;;
13660;SDS011;6903;49.480;11.102;2024-01-06T06:49:29;9.47;;;5.03;;
13660;SDS011;6903;49.480;11.102;2024-01-06T06:51:54;7.57;;;4.90;;
13660;SDS011;6903;49.480;11.102;2024-01-06T06:54:21;8.67;;;5.57;;
13660;SDS011;6903;49.480;11.102;2024-01-06T06:56:46;7.03;;;4.70;;
13660;SDS011;6903;49.480;11.102;2024-01-06T06:59:11;9.20;;;5.13;;
13660;SDS011;6903;49.480;11.102;2024-01-06T07:01:37;8.70;;;5.33;;
13660;SDS011;6903;49.480;11.102;2024-01-06T07:04:02;8.03;;;5.33;;
13660;SDS011;6903;49.480;11.102;2024-01-06T07:06:28;10.37;;;5.50;;
13660;SDS011;6903;49.480;11.102;2024-01-06T07:08:53;9.50;;;5.10;;
13660;SDS011;6903;49.480;11.102;2024-01-06T07:11:19;10.37;;;6.50;;
13660;SDS011;6903;49.480;11.102;2024-01-06T07:13:44;11.40;;;6.53;;
13660;SDS011;6903;49.480;11.102;2024-01-06T07:16:09;9.03;;;6.20;;
13660;SDS011;6903;49.480;11.102;2024-01-06T07:18:35;10.70;;;5.83;;
13660;SDS011;6903;49.480;11.102;2024-01-06T07:21:00;8.27;;;5.30;;
13660;SDS011;6903;49.480;11.102;2024-01-06T07:23:25;7.97;;;5.53;;
13660;SDS011;6903;49.480;11.102;2024-01-06T07:25:50;10.03;;;5.67;;
13660;SDS011;6903;49.480;11.102;2024-01-06T07:28:15;8.67;;;5.20;;
13660;SDS011;6903;49.480;11.102;2024-01-06T07:30:41;7.80;;;5.17;;
13660;SDS011;6903;49.480;11.102;2024-01-06T07:33:06;8.83;;;5.40;;
13660;SDS011;6903;49.480;11.102;2024-01-06T07:35:31;13.00;;;8.67;;
13660;SDS011;6903;49.480;11.102;2024-01-06T07:37:56;12.93;;;8.47;;
13660;SDS011;6903;49.480;11.102;2024-01-06T07:40:21;14.37;;;11.50;;
13660;SDS011;6903;49.480;11.102;2024-01-06T07:42:48;12.40;;;8.77;;
13660;SDS011;6903;49.480;11.102;2024-01-06T07:45:13;9.37;;;7.13;;
13660;SDS011;6903;49.480;11.102;2024-01-06T07:47:38;12.77;;;7.50;;
13660;SDS011;6903;49.480;11.102;2024-01-06T07:50:04;13.27;;;6.93;;
13660;SDS011;6903;49.480;11.102;2024-01-06T07:52:30;9.50;;;6.07;;
13660;SDS011;6903;49.480;11.102;2024-01-06T07:54:55;10.30;;;7.17;;
13660;SDS011;6903;49.480;11.102;2024-01-06T07:57:20;11.80;;;7.63;;
13660;SDS011;6903;49.480;11.102;2024-01-06T07:59:45;11.80;;;6.77;;
13660;SDS011;6903;49.480;11.102;2024-01-06T08:02:11;8.00;;;5.27;;
13660;SDS011;6903;49.480;11.102;2024-01-06T08:04:36;8.90;;;5.47;;
13660;SDS011;6903;49.480;11.102;2024-01-06T08:07:01;9.33;;;5.97;;
13660;SDS011;6903;49.480;11.102;2024-01-06T08:09:26;11.23;;;6.33;;
13660;SDS011;6903;49.480;11.102;2024-01-06T08:11:51;10.20;;;5.93;;
13660;SDS011;6903;49.480;11.102;2024-01-06T08:14:17;11.83;;;6.57;;
13660;SDS011;6903;49.480;11.102;2024-01-06T08:16:43;9.40;;;6.93;;
13660;SDS011;6903;49.480;11.102;2024-01-06T08:19:08;12.97;;;7.53;;
13660;SDS011;6903;49.480;11.102;2024-01-06T08:21:33;11.97;;;7.03;;
13660;SDS011;6903;49.480;11.102;2024-01-06T08:23:59;10.20;;;6.37;;
13660;SDS011;6903;49.480;11.102;2024-01-06T08:26:24;11.20;;;7.10;;
13660;SDS011;6903;49.480;11.102;2024-01-06T08:28:49;11.30;;;7.33;;
13660;SDS011;6903;49.480;11.102;2024-01-06T08:31:15;12.43;;;7.20;;
13660;SDS011;6903;49.480;11.102;2024-01-06T08:33:40;12.60;;;7.67;;
13660;SDS011;6903;49.480;11.102;2024-01-06T08:36:05;12.63;;;7.17;;
13660;SDS011;6903;49.480;11.102;2024-01-06T08:38:30;12.17;;;7.33;;
13660;SDS011;6903;49.480;11.102;2024-01-06T08:40:55;9.80;;;6.97;;
13660;SDS011;6903;49.480;11.102;2024-01-06T08:43:21;12.47;;;7.40;;
13660;SDS011;6903;49.480;11.102;2024-01-06T08:45:46;14.03;;;8.13;;
13660;SDS011;6903;49.480;11.102;2024-01-06T08:48:11;18.13;;;10.57;;
13660;SDS011;6903;49.480;11.102;2024-01-06T08:50:38;20.70;;;9.93;;
13660;SDS011;6903;49.480;11.102;2024-01-06T08:53:03;12.37;;;7.47;;
13660;SDS011;6903;49.480;11.102;2024-01-06T08:55:29;12.83;;;8.13;;
13660;SDS011;6903;49.480;11.102;2024-01-06T08:57:55;15.50;;;8.50;;
13660;SDS011;6903;49.480;11.102;2024-01-06T09:00:20;14.10;;;8.30;;
13660;SDS011;6903;49.480;11.102;2024-01-06T09:02:45;12.67;;;7.80;;
13660;SDS011;6903;49.480;11.102;2024-01-06T09:05:10;10.30;;;6.43;;
13660;SDS011;6903;49.480;11.102;2024-01-06T09:07:36;11.23;;;7.37;;
13660;SDS011;6903;49.480;11.102;2024-01-06T09:10:01;12.87;;;8.20;;
13660;SDS011;6903;49.480;11.102;2024-01-06T09:12:26;13.30;;;8.83;;
13660;SDS011;6903;49.480;11.102;2024-01-06T09:14:51;12.70;;;8.40;;
13660;SDS011;6903;49.480;11.102;2024-01-06T09:17:16;12.27;;;8.37;;
13660;SDS011;6903;49.480;11.102;2024-01-06T09:19:41;14.10;;;9.07;;
13660;SDS011;6903;49.480;11.102;2024-01-06T09:22:07;13.00;;;8.77;;
13660;SDS011;6903;49.480;11.102;2024-01-06T09:24:32;14.57;;;8.50;;
13660;SDS011;6903;49.480;11.102;2024-01-06T09:26:58;13.80;;;8.77;;
13660;SDS011;6903;49.480;11.102;2024-01-06T09:29:23;13.23;;;8.90;;
13660;SDS011;6903;49.480;11.102;2024-01-06T09:31:48;18.93;;;11.33;;
13660;SDS011;6903;49.480;11.102;2024-01-06T09:34:14;15.73;;;10.43;;
13660;SDS011;6903;49.480;11.102;2024-01-06T09:36:39;16.50;;;10.70;;
13660;SDS011;6903;49.480;11.102;2024-01-06T09:39:04;15.70;;;10.73;;
13660;SDS011;6903;49.480;11.102;2024-01-06T09:41:30;16.07;;;10.17;;
13660;SDS011;6903;49.480;11.102;2024-01-06T09:43:55;15.07;;;8.93;;
13660;SDS011;6903;49.480;11.102;2024-01-06T09:46:23;13.60;;;8.73;;
13660;SDS011;6903;49.480;11.102;2024-01-06T09:48:50;15.37;;;9.60;;
13660;SDS011;6903;49.480;11.102;2024-01-06T09:51:17;13.97;;;8.90;;
13660;SDS011;6903;49.480;11.102;2024-01-06T09:53:48;15.40;;;9.80;;
13660;SDS011;6903;49.480;11.102;2024-01-06T09:56:14;16.97;;;9.30;;
13660;SDS011;6903;49.480;11.102;2024-01-06T09:58:39;14.70;;;8.77;;
13660;SDS011;6903;49.480;11.102;2024-01-06T10:01:05;13.10;;;8.57;;
13660;SDS011;6903;49.480;11.102;2024-01-06T10:03:31;13.60;;;8.33;;
13660;SDS011;6903;49.480;11.102;2024-01-06T10:05:56;12.07;;;8.23;;
13660;SDS011;6903;49.480;11.102;2024-01-06T10:08:25;16.13;;;7.90;;
13660;SDS011;6903;49.480;11.102;2024-01-06T10:10:51;14.57;;;8.57;;
13660;SDS011;6903;49.480;11.102;2024-01-06T10:13:16;11.97;;;7.63;;
13660;SDS011;6903;49.480;11.102;2024-01-06T10:15:42;10.20;;;7.00;;
13660;SDS011;6903;49.480;11.102;2024-01-06T10:18:07;13.30;;;7.80;;
13660;SDS011;6903;49.480;11.102;2024-01-06T10:20:33;12.23;;;6.90;;
13660;SDS011;6903;49.480;11.102;2024-01-06T10:22:58;9.30;;;6.87;;
13660;SDS011;6903;49.480;11.102;2024-01-06T10:25:29;10.90;;;6.83;;
13660;SDS011;6903;49.480;11.102;2024-01-06T10:27:54;11.00;;;6.70;;
13660;SDS011;6903;49.480;11.102;2024-01-06T10:30:19;10.27;;;6.77;;
13660;SDS011;6903;49.480;11.102;2024-01-06T10:32:44;7.67;;;5.03;;
13660;SDS011;6903;49.480;11.102;2024-01-06T10:35:10;7.27;;;4.90;;
13660;SDS011;6903;49.480;11.102;2024-01-06T10:37:35;8.80;;;5.53;;
13660;SDS011;6903;49.480;11.102;2024-01-06T10:40:10;8.27;;;5.60;;
13660;SDS011;6903;49.480;11.102;2024-01-06T10:42:36;7.90;;;5.27;;
13660;SDS011;6903;49.480;11.102;2024-01-06T10:45:04;8.63;;;5.30;;
13660;SDS011;6903;49.480;11.102;2024-01-06T10:47:31;7.80;;;5.43;;
13660;SDS011;6903;49.480;11.102;2024-01-06T10:49:58;6.47;;;4.70;;
13660;SDS011;6903;49.480;11.102;2024-01-06T10:52:24;5.67;;;4.60;;
13660;SDS011;6903;49.480;11.102;2024-01-06T10:54:49;7.23;;;4.63;;
13660;SDS011;6903;49.480;11.102;2024-01-06T10:57:16;7.73;;;4.90;;
13660;SDS011;6903;49.480;11.102;2024-01-06T10:59:43;7.00;;;4.63;;
13660;SDS011;6903;49.480;11.102;2024-01-06T11:02:10;8.33;;;4.93;;
13660;SDS011;6903;49.480;11.102;2024-01-06T11:04:35;7.03;;;4.63;;
13660;SDS011;6903;49.480;11.102;2024-01-06T11:07:01;4.87;;;4.13;;
13660;SDS011;6903;49.480;11.102;2024-01-06T11:09:29;6.50;;;4.17;;
13660;SDS011;6903;49.480;11.102;2024-01-06T11:11:58;8.13;;;4.50;;
13660;SDS011;6903;49.480;11.102;2024-01-06T11:14:25;6.23;;;4.40;;
13660;SDS011;6903;49.480;11.102;2024-01-06T11:16:51;5.83;;;4.23;;
13660;SDS011;6903;49.480;11.102;2024-01-06T11:21:57;7.03;;;4.27;;
13660;SDS011;6903;49.480;11.102;2024-01-06T11:24:42;6.60;;;4.30;;
13660;SDS011;6903;49.480;11.102;2024-01-06T11:27:08;6.53;;;3.93;;
13660;SDS011;6903;49.480;11.102;2024-01-06T11:29:34;6.70;;;4.50;;
13660;SDS011;6903;49.480;11.102;2024-01-06T11:32:19;8.57;;;4.87;;
13660;SDS011;6903;49.480;11.102;2024-01-06T11:34:51;5.50;;;4.50;;
13660;SDS011;6903;49.480;11.102;2024-01-06T11:37:25;6.83;;;4.97;;
13660;SDS011;6903;49.480;11.102;2024-01-06T11:39:50;8.17;;;4.90;;
13660;SDS011;6903;49.480;11.102;2024-01-06T11:42:15;10.37;;;5.73;;
13660;SDS011;6903;49.480;11.102;2024-01-06T11:44:44;7.87;;;5.10;;
13660;SDS011;6903;49.480;11.102;2024-01-06T11:47:10;8.23;;;5.37;;
13660;SDS011;6903;49.480;11.102;2024-01-06T11:49:36;8.97;;;5.00;;
13660;SDS011;6903;49.480;11.102;2024-01-06T11:52:02;7.70;;;5.00;;
13660;SDS011;6903;49.480;11.102;2024-01-06T11:54:27;7.80;;;5.10;;
13660;SDS011;6903;49.480;11.102;2024-01-06T11:56:53;7.83;;;4.90;;
13660;SDS011;6903;49.480;11.102;2024-01-06T11:59:21;7.40;;;5.30;;
13660;SDS011;6903;49.480;11.102;2024-01-06T12:01:46;6.63;;;4.33;;
13660;SDS011;6903;49.480;11.102;2024-01-06T12:04:13;8.10;;;4.63;;
13660;SDS011;6903;49.480;11.102;2024-01-06T12:06:38;5.37;;;4.23;;
13660;SDS011;6903;49.480;11.102;2024-01-06T12:09:07;5.20;;;3.87;;
13660;SDS011;6903;49.480;11.102;2024-01-06T12:11:33;6.00;;;4.33;;
13660;SDS011;6903;49.480;11.102;2024-01-06T12:13:58;7.50;;;4.00;;
13660;SDS011;6903;49.480;11.102;2024-01-06T12:16:23;4.47;;;3.77;;
13660;SDS011;6903;49.480;11.102;2024-01-06T12:18:55;4.33;;;3.23;;
13660;SDS011;6903;49.480;11.102;2024-01-06T12:21:22;5.07;;;3.03;;
13660;SDS011;6903;49.480;11.102;2024-01-06T12:23:47;4.70;;;3.37;;
13660;SDS011;6903;49.480;11.102;2024-01-06T12:26:12;5.17;;;3.50;;
13660;SDS011;6903;49.480;11.102;2024-01-06T12:28:37;4.27;;;3.10;;
13660;SDS011;6903;49.480;11.102;2024-01-06T12:31:04;4.57;;;3.27;;
13660;SDS011;6903;49.480;11.102;2024-01-06T12:33:29;4.63;;;3.30;;
13660;SDS011;6903;49.480;11.102;2024-01-06T12:35:56;4.53;;;3.53;;
13660;SDS011;6903;49.480;11.102;2024-01-06T12:38:22;3.50;;;2.93;;
13660;SDS011;6903;49.480;11.102;2024-01-06T12:40:47;4.83;;;3.33;;
13660;SDS011;6903;49.480;11.102;2024-01-06T12:43:12;4.70;;;3.40;;
13660;SDS011;6903;49.480;11.102;2024-01-06T12:45:37;3.37;;;2.80;;
13660;SDS011;6903;49.480;11.102;2024-01-06T12:48:02;5.23;;;3.13;;
13660;SDS011;6903;49.480;11.102;2024-01-06T12:50:28;3.83;;;3.20;;
13660;SDS011;6903;49.480;11.102;2024-01-06T12:52:53;4.30;;;3.43;;
13660;SDS011;6903;49.480;11.102;2024-01-06T12:55:18;6.93;;;3.77;;
13660;SDS011;6903;49.480;11.102;2024-01-06T12:57:43;5.33;;;3.47;;
13660;SDS011;6903;49.480;11.102;2024-01-06T13:00:09;6.43;;;4.47;;
13660;SDS011;6903;49.480;11.102;2024-01-06T13:02:36;5.10;;;3.80;;
13660;SDS011;6903;49.480;11.102;2024-01-06T13:05:02;5.20;;;3.73;;
13660;SDS011;6903;49.480;11.102;2024-01-06T13:07:27;4.50;;;3.27;;
13660;SDS011;6903;49.480;11.102;2024-01-06T13:09:52;6.73;;;3.57;;
13660;SDS011;6903;49.480;11.102;2024-01-06T13:12:18;5.23;;;3.33;;
13660;SDS011;6903;49.480;11.102;2024-01-06T13:14:43;4.73;;;3.33;;
13660;SDS011;6903;49.480;11.102;2024-01-06T13:17:09;5.20;;;3.60;;
13660;SDS011;6903;49.480;11.102;2024-01-06T13:19:34;3.60;;;3.00;;
13660;SDS011;6903;49.480;11.102;2024-01-06T13:22:00;4.47;;;3.37;;
13660;SDS011;6903;49.480;11.102;2024-01-06T13:24:25;5.17;;;3.70;;
13660;SDS011;6903;49.480;11.102;2024-01-06T13:26:50;4.30;;;3.33;;
13660;SDS011;6903;49.480;11.102;2024-01-06T13:29:15;4.67;;;3.50;;
13660;SDS011;6903;49.480;11.102;2024-01-06T13:31:41;5.83;;;3.37;;
13660;SDS011;6903;49.480;11.102;2024-01-06T13:34:07;10.20;;;6.47;;
13660;SDS011;6903;49.480;11.102;2024-01-06T13:36:33;4.80;;;3.30;;
13660;SDS011;6903;49.480;11.102;2024-01-06T13:38:58;6.33;;;4.53;;
13660;SDS011;6903;49.480;11.102;2024-01-06T13:41:24;5.83;;;3.87;;
13660;SDS011;6903;49.480;11.102;2024-01-06T13:43:50;6.80;;;3.53;;
13660;SDS011;6903;49.480;11.102;2024-01-06T13:46:15;4.63;;;3.00;;
13660;SDS011;6903;49.480;11.102;2024-01-06T13:48:41;3.97;;;3.20;;
13660;SDS011;6903;49.480;11.102;2024-01-06T13:51:06;4.27;;;3.87;;
13660;SDS011;6903;49.480;11.102;2024-01-06T13:53:31;7.17;;;4.90;;
13660;SDS011;6903;49.480;11.102;2024-01-06T13:55:56;3.57;;;2.70;;
13660;SDS011;6903;49.480;11.102;2024-01-06T13:58:21;4.00;;;2.93;;
13660;SDS011;6903;49.480;11.102;2024-01-06T14:00:47;5.40;;;2.90;;
13660;SDS011;6903;49.480;11.102;2024-01-06T14:03:13;4.17;;;2.60;;
13660;SDS011;6903;49.480;11.102;2024-01-06T14:05:38;5.37;;;3.17;;
13660;SDS011;6903;49.480;11.102;2024-01-06T14:08:05;4.33;;;3.00;;
13660;SDS011;6903;49.480;11.102;2024-01-06T14:10:30;5.73;;;3.53;;
13660;SDS011;6903;49.480;11.102;2024-01-06T14:12:56;5.97;;;3.70;;
13660;SDS011;6903;49.480;11.102;2024-01-06T14:15:21;7.53;;;3.80;;
13660;SDS011;6903;49.480;11.102;2024-01-06T14:17:47;6.23;;;3.80;;
13660;SDS011;6903;49.480;11.102;2024-01-06T14:20:16;4.30;;;3.13;;
13660;SDS011;6903;49.480;11.102;2024-01-06T14:22:43;3.43;;;2.70;;
13660;SDS011;6903;49.480;11.102;2024-01-06T14:25:08;5.17;;;2.83;;
13660;SDS011;6903;49.480;11.102;2024-01-06T14:27:33;4.63;;;2.90;;
13660;SDS011;6903;49.480;11.102;2024-01-06T14:29:59;3.53;;;3.00;;
13660;SDS011;6903;49.480;11.102;2024-01-06T14:32:24;5.27;;;2.70;;
13660;SDS011;6903;49.480;11.102;2024-01-06T14:34:50;3.43;;;2.57;;
13660;SDS011;6903;49.480;11.102;2024-01-06T14:37:16;3.77;;;3.03;;